Time,TemperatureF,DewpointF,PressureIn,WindDirection,WindDirectionDegrees,WindSpeedMPH,WindSpeedGustMPH,Humidity,HourlyPrecipIn,Conditions,Clouds,dailyrainin,SolarRadiationWatts/m^2,SoftwareType,DateUTC
2013-01-10 00:50:00,35.0,24.0,29.73,SE,146,18.0,25.0,63,-99.99,,,-99.99,0.000000,,2013-01-10 08:50:00,
2013-01-10 01:50:00,34.0,23.0,29.70,SSE,147,18.0,25.0,63,-99.99,,,-99.99,0.000000,,2013-01-10 09:50:00,
2013-01-10 02:50:00,33.0,23.0,29.66,SE,144,16.0,23.0,66,-99.99,,,-99.99,0.000000,,2013-01-10 10:50:00,
2013-01-10 03:50:00,32.0,21.0,29.62,SE,143,17.0,23.0,65,-99.99,,,-99.99,0.000000,,2013-01-10 11:50:00,
2013-01-10 04:50:00,31.0,20.0,29.59,SE,135,15.0,19.0,65,-99.99,,,-99.99,0.000000,,2013-01-10 12:50:00,
2013-01-10 05:50:00,30.0,20.0,29.57,SSE,151,17.0,24.0,67,-99.99,,,-99.99,0.000000,,2013-01-10 13:50:00,
2013-01-10 06:50:00,29.0,20.0,29.57,SSE,148,14.0,20.0,68,-99.99,,,-99.99,0.000000,,2013-01-10 14:50:00,
2013-01-10 07:50:00,29.0,20.0,29.57,SE,140,13.0,20.0,70,-99.99,,,-99.99,50.000000,,2013-01-10 15:50:00,
2013-01-10 08:50:00,31.0,24.0,29.60,West,261,6.0,13.0,76,-99.99,,,-99.99,50.000000,,2013-01-10 16:50:00,
2013-01-10 09:50:00,22.0,20.0,29.62,NNW,345,14.0,20.0,92,-99.99,,,-99.99,110.000000,,2013-01-10 17:50:00,
2013-01-10 10:50:00,21.0,19.0,29.62,NNW,337,13.0,18.0,92,-99.99,,,-99.99,150.000000,,2013-01-10 18:50:00,
2013-01-10 11:50:00,21.0,18.0,29.60,North,9,10.0,13.0,89,-99.99,,,-99.99,220.000000,,2013-01-10 19:50:00,
2013-01-10 12:50:00,21.0,18.0,29.59,North,350,8.0,12.0,87,-99.99,,,-99.99,280.000000,,2013-01-10 20:50:00,
2013-01-10 14:50:00,19.0,15.0,29.59,NNW,329,16.0,23.0,82,-99.99,,,-99.99,150.000000,,2013-01-10 22:50:00,
2013-01-10 15:22:00,19.0,15.0,29.59,NNW,329,16.0,23.0,82,-99.99,,,-99.99,150.000000,,2013-01-10 23:22:00,
2013-01-10 15:33:00,19.0,15.0,29.59,NNW,329,16.0,23.0,82,-99.99,,,-99.99,150.000000,,2013-01-10 23:33:00,
2013-01-10 15:42:00,19.0,15.0,29.59,NNW,329,16.0,23.0,82,-99.99,,,-99.99,150.000000,,2013-01-10 23:42:00,
2013-01-10 15:50:00,18.0,11.0,29.59,NNW,332,10.0,16.0,71,-99.99,,,-99.99,90.000000,,2013-01-10 23:50:00,
2013-01-10 16:50:00,16.0,8.0,29.58,NNW,327,15.0,23.0,68,-99.99,,,-99.99,0.000000,,2013-01-11 00:50:00,
2013-01-10 17:50:00,14.0,5.0,29.59,NW,320,10.0,15.0,69,-99.99,,,-99.99,0.000000,,2013-01-11 01:50:00,
2013-01-10 18:50:00,14.0,6.0,29.60,NW,313,12.0,16.0,69,-99.99,,,-99.99,0.000000,,2013-01-11 02:50:00,
2013-01-10 19:50:00,13.0,6.0,29.61,NNW,329,7.0,8.0,76,-99.99,,,-99.99,0.000000,,2013-01-11 03:50:00,
2013-01-10 20:50:00,13.0,5.0,29.62,NW,325,13.0,18.0,69,-99.99,,,-99.99,0.000000,,2013-01-11 04:50:00,
2013-01-10 22:50:00,10.0,3.0,29.63,NNW,328,11.0,14.0,71,-99.99,,,-99.99,0.000000,,2013-01-11 06:50:00,
2013-01-10 23:50:00,7.0,1.0,29.63,North,352,5.0,6.0,76,-99.99,,,-99.99,0.000000,,2013-01-11 07:50:00,